sensor_id;sensor_type;location;lat;lon;timestamp;temperature;humidity
51029;DHT22;37054;52.054;8.600;2023-04-03T00:00:03;7.90;47.20
51029;DHT22;37054;52.054;8.600;2023-04-03T00:02:29;7.80;47.20
51029;DHT22;37054;52.054;8.600;2023-04-03T00:04:54;7.80;47.20
51029;DHT22;37054;52.054;8.600;2023-04-03T00:07:20;7.80;47.40
51029;DHT22;37054;52.054;8.600;2023-04-03T00:09:46;7.80;47.40
51029;DHT22;37054;52.054;8.600;2023-04-03T00:12:11;7.70;47.40
51029;DHT22;37054;52.054;8.600;2023-04-03T00:14:37;7.70;47.40
51029;DHT22;37054;52.054;8.600;2023-04-03T00:17:02;7.70;47.50
51029;DHT22;37054;52.054;8.600;2023-04-03T00:19:27;7.70;47.60
51029;DHT22;37054;52.054;8.600;2023-04-03T00:21:53;7.60;47.50
51029;DHT22;37054;52.054;8.600;2023-04-03T00:24:18;7.60;47.60
51029;DHT22;37054;52.054;8.600;2023-04-03T00:26:44;7.50;47.60
51029;DHT22;37054;52.054;8.600;2023-04-03T00:29:09;7.50;47.70
51029;DHT22;37054;52.054;8.600;2023-04-03T00:31:35;7.40;47.80
51029;DHT22;37054;52.054;8.600;2023-04-03T00:34:00;7.30;47.90
51029;DHT22;37054;52.054;8.600;2023-04-03T00:36:26;7.30;47.90
51029;DHT22;37054;52.054;8.600;2023-04-03T00:38:51;7.20;48.00
51029;DHT22;37054;52.054;8.600;2023-04-03T00:41:17;7.10;47.90
51029;DHT22;37054;52.054;8.600;2023-04-03T00:43:42;7.00;48.00
51029;DHT22;37054;52.054;8.600;2023-04-03T00:46:08;6.90;48.10
51029;DHT22;37054;52.054;8.600;2023-04-03T00:48:34;6.90;48.30
51029;DHT22;37054;52.054;8.600;2023-04-03T00:51:01;6.80;48.30
51029;DHT22;37054;52.054;8.600;2023-04-03T00:53:32;6.70;48.30
51029;DHT22;37054;52.054;8.600;2023-04-03T00:55:58;6.60;48.40
51029;DHT22;37054;52.054;8.600;2023-04-03T00:58:27;6.50;48.40
51029;DHT22;37054;52.054;8.600;2023-04-03T01:00:54;6.40;48.40
51029;DHT22;37054;52.054;8.600;2023-04-03T01:03:22;6.30;48.60
51029;DHT22;37054;52.054;8.600;2023-04-03T01:05:48;6.20;48.90
51029;DHT22;37054;52.054;8.600;2023-04-03T01:08:13;6.20;49.20
51029;DHT22;37054;52.054;8.600;2023-04-03T01:10:39;6.10;49.20
51029;DHT22;37054;52.054;8.600;2023-04-03T01:13:17;6.10;49.30
51029;DHT22;37054;52.054;8.600;2023-04-03T01:15:43;6.10;49.40
51029;DHT22;37054;52.054;8.600;2023-04-03T01:18:09;6.00;49.70
51029;DHT22;37054;52.054;8.600;2023-04-03T01:20:49;6.00;49.50
51029;DHT22;37054;52.054;8.600;2023-04-03T01:26:11;5.80;49.60
51029;DHT22;37054;52.054;8.600;2023-04-03T01:28:36;5.80;49.60
51029;DHT22;37054;52.054;8.600;2023-04-03T01:33:42;5.70;49.30
51029;DHT22;37054;52.054;8.600;2023-04-03T01:36:08;5.60;49.20
51029;DHT22;37054;52.054;8.600;2023-04-03T01:38:34;5.50;49.20
51029;DHT22;37054;52.054;8.600;2023-04-03T01:41:00;5.40;49.20
51029;DHT22;37054;52.054;8.600;2023-04-03T01:43:26;5.30;49.20
51029;DHT22;37054;52.054;8.600;2023-04-03T01:45:51;5.20;49.30
51029;DHT22;37054;52.054;8.600;2023-04-03T01:48:19;5.10;49.60
51029;DHT22;37054;52.054;8.600;2023-04-03T01:50:45;5.10;49.70
51029;DHT22;37054;52.054;8.600;2023-04-03T01:53:10;5.10;50.30
51029;DHT22;37054;52.054;8.600;2023-04-03T01:55:36;5.10;50.40
51029;DHT22;37054;52.054;8.600;2023-04-03T01:58:01;5.00;50.40
51029;DHT22;37054;52.054;8.600;2023-04-03T02:00:27;5.00;50.20
51029;DHT22;37054;52.054;8.600;2023-04-03T02:02:52;5.00;50.10
51029;DHT22;37054;52.054;8.600;2023-04-03T02:05:18;4.90;50.10
51029;DHT22;37054;52.054;8.600;2023-04-03T02:07:43;4.90;50.00
51029;DHT22;37054;52.054;8.600;2023-04-03T02:10:09;4.80;49.90
51029;DHT22;37054;52.054;8.600;2023-04-03T02:12:34;4.80;49.90
51029;DHT22;37054;52.054;8.600;2023-04-03T02:15:00;4.70;49.90
51029;DHT22;37054;52.054;8.600;2023-04-03T02:17:26;4.70;49.90
51029;DHT22;37054;52.054;8.600;2023-04-03T02:19:51;4.60;50.00
51029;DHT22;37054;52.054;8.600;2023-04-03T02:22:17;4.60;50.30
51029;DHT22;37054;52.054;8.600;2023-04-03T02:24:42;4.50;50.30
51029;DHT22;37054;52.054;8.600;2023-04-03T02:27:07;4.50;50.60
51029;DHT22;37054;52.054;8.600;2023-04-03T02:29:33;4.50;50.50
51029;DHT22;37054;52.054;8.600;2023-04-03T02:31:58;4.40;50.70
51029;DHT22;37054;52.054;8.600;2023-04-03T02:34:24;4.40;50.70
51029;DHT22;37054;52.054;8.600;2023-04-03T02:36:49;4.30;50.70
51029;DHT22;37054;52.054;8.600;2023-04-03T02:39:15;4.30;50.80
51029;DHT22;37054;52.054;8.600;2023-04-03T02:41:41;4.30;51.00
51029;DHT22;37054;52.054;8.600;2023-04-03T02:44:08;4.30;50.80
51029;DHT22;37054;52.054;8.600;2023-04-03T02:46:34;4.20;50.60
51029;DHT22;37054;52.054;8.600;2023-04-03T02:49:00;4.10;50.50
51029;DHT22;37054;52.054;8.600;2023-04-03T02:51:25;4.10;50.40
51029;DHT22;37054;52.054;8.600;2023-04-03T02:53:51;4.00;50.40
51029;DHT22;37054;52.054;8.600;2023-04-03T02:56:16;3.90;50.80
51029;DHT22;37054;52.054;8.600;2023-04-03T02:58:43;4.00;51.60
51029;DHT22;37054;52.054;8.600;2023-04-03T03:01:09;4.00;51.80
51029;DHT22;37054;52.054;8.600;2023-04-03T03:03:34;4.00;51.80
51029;DHT22;37054;52.054;8.600;2023-04-03T03:06:04;4.00;52.10
51029;DHT22;37054;52.054;8.600;2023-04-03T03:08:30;4.10;52.20
51029;DHT22;37054;52.054;8.600;2023-04-03T03:10:55;4.10;52.20
51029;DHT22;37054;52.054;8.600;2023-04-03T03:13:20;4.10;52.50
51029;DHT22;37054;52.054;8.600;2023-04-03T03:15:46;4.20;52.80
51029;DHT22;37054;52.054;8.600;2023-04-03T03:18:11;4.20;52.90
51029;DHT22;37054;52.054;8.600;2023-04-03T03:20:37;4.30;53.30
51029;DHT22;37054;52.054;8.600;2023-04-03T03:23:02;4.40;53.50
51029;DHT22;37054;52.054;8.600;2023-04-03T03:25:28;4.50;53.50
51029;DHT22;37054;52.054;8.600;2023-04-03T03:27:53;4.50;53.40
51029;DHT22;37054;52.054;8.600;2023-04-03T03:30:18;4.60;53.40
51029;DHT22;37054;52.054;8.600;2023-04-03T03:32:44;4.60;53.30
51029;DHT22;37054;52.054;8.600;2023-04-03T03:35:09;4.60;53.20
51029;DHT22;37054;52.054;8.600;2023-04-03T03:37:35;4.60;53.10
51029;DHT22;37054;52.054;8.600;2023-04-03T03:40:00;4.70;53.10
51029;DHT22;37054;52.054;8.600;2023-04-03T03:42:25;4.70;53.30
51029;DHT22;37054;52.054;8.600;2023-04-03T03:44:51;4.70;53.20
51029;DHT22;37054;52.054;8.600;2023-04-03T03:47:17;4.80;53.30
51029;DHT22;37054;52.054;8.600;2023-04-03T03:49:42;4.80;53.20
51029;DHT22;37054;52.054;8.600;2023-04-03T03:52:08;4.80;53.30
51029;DHT22;37054;52.054;8.600;2023-04-03T03:54:36;4.80;53.30
51029;DHT22;37054;52.054;8.600;2023-04-03T03:57:01;4.80;53.20
51029;DHT22;37054;52.054;8.600;2023-04-03T03:59:26;4.80;53.10
51029;DHT22;37054;52.054;8.600;2023-04-03T04:01:52;4.80;53.10
51029;DHT22;37054;52.054;8.600;2023-04-03T04:04:17;4.80;53.20
51029;DHT22;37054;52.054;8.600;2023-04-03T04:06:43;4.80;53.50
51029;DHT22;37054;52.054;8.600;2023-04-03T04:09:08;4.90;53.50
51029;DHT22;37054;52.054;8.600;2023-04-03T04:11:34;4.90;53.40
51029;DHT22;37054;52.054;8.600;2023-04-03T04:13:59;5.00;53.40
51029;DHT22;37054;52.054;8.600;2023-04-03T04:16:25;5.00;53.40
51029;DHT22;37054;52.054;8.600;2023-04-03T04:18:50;5.00;53.30
51029;DHT22;37054;52.054;8.600;2023-04-03T04:21:16;5.00;53.30
51029;DHT22;37054;52.054;8.600;2023-04-03T04:23:41;5.00;53.30
51029;DHT22;37054;52.054;8.600;2023-04-03T04:26:06;5.00;53.30
51029;DHT22;37054;52.054;8.600;2023-04-03T04:28:32;5.00;53.30
51029;DHT22;37054;52.054;8.600;2023-04-03T04:30:57;5.00;53.30
51029;DHT22;37054;52.054;8.600;2023-04-03T04:33:23;5.00;53.30
51029;DHT22;37054;52.054;8.600;2023-04-03T04:35:48;5.00;53.20
51029;DHT22;37054;52.054;8.600;2023-04-03T04:38:14;5.00;53.20
51029;DHT22;37054;52.054;8.600;2023-04-03T04:40:39;5.00;53.30
51029;DHT22;37054;52.054;8.600;2023-04-03T04:43:05;5.00;53.00
51029;DHT22;37054;52.054;8.600;2023-04-03T04:45:31;4.90;53.20
51029;DHT22;37054;52.054;8.600;2023-04-03T04:47:56;5.00;53.30
51029;DHT22;37054;52.054;8.600;2023-04-03T04:50:22;4.90;53.40
51029;DHT22;37054;52.054;8.600;2023-04-03T04:52:47;4.90;53.30
51029;DHT22;37054;52.054;8.600;2023-04-03T04:55:13;4.90;53.20
51029;DHT22;37054;52.054;8.600;2023-04-03T04:57:38;4.90;53.40
51029;DHT22;37054;52.054;8.600;2023-04-03T05:00:04;4.90;53.40
51029;DHT22;37054;52.054;8.600;2023-04-03T05:02:30;4.90;53.40
51029;DHT22;37054;52.054;8.600;2023-04-03T05:04:56;4.90;53.50
51029;DHT22;37054;52.054;8.600;2023-04-03T05:07:21;5.00;53.70
51029;DHT22;37054;52.054;8.600;2023-04-03T05:09:47;5.00;54.20
51029;DHT22;37054;52.054;8.600;2023-04-03T05:12:12;5.20;54.50
51029;DHT22;37054;52.054;8.600;2023-04-03T05:14:38;5.40;54.70
51029;DHT22;37054;52.054;8.600;2023-04-03T05:17:03;5.60;54.60
51029;DHT22;37054;52.054;8.600;2023-04-03T05:19:28;5.80;54.70
51029;DHT22;37054;52.054;8.600;2023-04-03T05:21:54;6.10;54.40
51029;DHT22;37054;52.054;8.600;2023-04-03T05:24:20;6.40;54.40
51029;DHT22;37054;52.054;8.600;2023-04-03T05:26:45;6.70;54.30
51029;DHT22;37054;52.054;8.600;2023-04-03T05:29:11;7.00;54.00
51029;DHT22;37054;52.054;8.600;2023-04-03T05:31:36;7.30;53.70
51029;DHT22;37054;52.054;8.600;2023-04-03T05:34:02;7.60;53.10
51029;DHT22;37054;52.054;8.600;2023-04-03T05:36:27;7.90;52.30
51029;DHT22;37054;52.054;8.600;2023-04-03T05:38:53;8.20;51.70
51029;DHT22;37054;52.054;8.600;2023-04-03T05:41:18;8.40;50.80
51029;DHT22;37054;52.054;8.600;2023-04-03T05:43:46;8.70;50.30
51029;DHT22;37054;52.054;8.600;2023-04-03T05:46:14;9.00;50.30
51029;DHT22;37054;52.054;8.600;2023-04-03T05:48:39;9.30;50.30
51029;DHT22;37054;52.054;8.600;2023-04-03T05:51:05;9.60;48.90
51029;DHT22;37054;52.054;8.600;2023-04-03T05:53:32;9.90;48.00
51029;DHT22;37054;52.054;8.600;2023-04-03T05:55:58;10.10;46.70
51029;DHT22;37054;52.054;8.600;2023-04-03T05:58:23;10.40;46.00
51029;DHT22;37054;52.054;8.600;2023-04-03T06:00:49;10.70;45.80
51029;DHT22;37054;52.054;8.600;2023-04-03T06:03:15;11.00;46.30
51029;DHT22;37054;52.054;8.600;2023-04-03T06:05:40;11.30;46.40
51029;DHT22;37054;52.054;8.600;2023-04-03T06:08:06;11.70;46.90
51029;DHT22;37054;52.054;8.600;2023-04-03T06:10:32;12.20;45.90
51029;DHT22;37054;52.054;8.600;2023-04-03T06:12:57;12.50;44.70
51029;DHT22;37054;52.054;8.600;2023-04-03T06:15:23;12.80;43.10
51029;DHT22;37054;52.054;8.600;2023-04-03T06:17:49;13.20;41.90
51029;DHT22;37054;52.054;8.600;2023-04-03T06:20:14;13.40;42.10
51029;DHT22;37054;52.054;8.600;2023-04-03T06:22:39;13.80;42.10
51029;DHT22;37054;52.054;8.600;2023-04-03T06:25:05;14.00;41.10
51029;DHT22;37054;52.054;8.600;2023-04-03T06:27:31;14.30;40.80
51029;DHT22;37054;52.054;8.600;2023-04-03T06:29:57;14.60;39.90
51029;DHT22;37054;52.054;8.600;2023-04-03T06:32:22;14.80;39.20
51029;DHT22;37054;52.054;8.600;2023-04-03T06:34:47;15.10;38.10
51029;DHT22;37054;52.054;8.600;2023-04-03T06:37:16;15.30;37.50
51029;DHT22;37054;52.054;8.600;2023-04-03T06:39:42;15.60;36.50
51029;DHT22;37054;52.054;8.600;2023-04-03T06:42:08;15.70;35.40
51029;DHT22;37054;52.054;8.600;2023-04-03T06:44:33;15.80;35.40
51029;DHT22;37054;52.054;8.600;2023-04-03T06:46:59;16.10;36.50
51029;DHT22;37054;52.054;8.600;2023-04-03T06:49:25;16.40;35.40
51029;DHT22;37054;52.054;8.600;2023-04-03T06:51:51;16.70;35.70
51029;DHT22;37054;52.054;8.600;2023-04-03T06:54:17;16.90;34.80
51029;DHT22;37054;52.054;8.600;2023-04-03T06:56:43;17.00;33.30
51029;DHT22;37054;52.054;8.600;2023-04-03T06:59:09;17.10;32.20
51029;DHT22;37054;52.054;8.600;2023-04-03T07:01:34;17.10;32.40
51029;DHT22;37054;52.054;8.600;2023-04-03T07:04:00;17.20;32.30
51029;DHT22;37054;52.054;8.600;2023-04-03T07:06:26;17.40;32.00
51029;DHT22;37054;52.054;8.600;2023-04-03T07:08:54;17.60;31.20
51029;DHT22;37054;52.054;8.600;2023-04-03T07:11:19;17.70;30.30
51029;DHT22;37054;52.054;8.600;2023-04-03T07:13:45;17.70;30.30
51029;DHT22;37054;52.054;8.600;2023-04-03T07:16:11;17.90;31.20
51029;DHT22;37054;52.054;8.600;2023-04-03T07:18:36;18.10;29.30
51029;DHT22;37054;52.054;8.600;2023-04-03T07:21:02;18.00;27.10
51029;DHT22;37054;52.054;8.600;2023-04-03T07:23:27;17.90;27.50
51029;DHT22;37054;52.054;8.600;2023-04-03T07:25:53;17.90;28.80
51029;DHT22;37054;52.054;8.600;2023-04-03T07:28:19;18.10;27.80
51029;DHT22;37054;52.054;8.600;2023-04-03T07:30:46;18.10;26.70
51029;DHT22;37054;52.054;8.600;2023-04-03T07:33:12;18.00;26.60
51029;DHT22;37054;52.054;8.600;2023-04-03T07:35:38;18.00;26.30
51029;DHT22;37054;52.054;8.600;2023-04-03T07:38:04;17.90;25.70
51029;DHT22;37054;52.054;8.600;2023-04-03T07:40:29;17.80;26.20
51029;DHT22;37054;52.054;8.600;2023-04-03T07:42:55;17.90;26.00
51029;DHT22;37054;52.054;8.600;2023-04-03T07:45:22;17.80;25.60
51029;DHT22;37054;52.054;8.600;2023-04-03T07:47:48;17.90;25.70
51029;DHT22;37054;52.054;8.600;2023-04-03T07:50:13;17.90;25.80
51029;DHT22;37054;52.054;8.600;2023-04-03T07:52:39;17.90;25.60
51029;DHT22;37054;52.054;8.600;2023-04-03T07:55:05;17.80;24.50
51029;DHT22;37054;52.054;8.600;2023-04-03T07:57:31;17.80;25.20
51029;DHT22;37054;52.054;8.600;2023-04-03T07:59:56;17.70;24.90
51029;DHT22;37054;52.054;8.600;2023-04-03T08:02:22;17.80;24.60
51029;DHT22;37054;52.054;8.600;2023-04-03T08:04:47;17.70;25.30
51029;DHT22;37054;52.054;8.600;2023-04-03T08:07:13;17.80;24.80
51029;DHT22;37054;52.054;8.600;2023-04-03T08:09:38;17.70;24.80
51029;DHT22;37054;52.054;8.600;2023-04-03T08:12:03;17.70;25.00
51029;DHT22;37054;52.054;8.600;2023-04-03T08:14:32;17.80;24.50
51029;DHT22;37054;52.054;8.600;2023-04-03T08:16:59;17.80;24.50
51029;DHT22;37054;52.054;8.600;2023-04-03T08:19:26;17.80;24.50
51029;DHT22;37054;52.054;8.600;2023-04-03T08:21:51;17.80;24.40
51029;DHT22;37054;52.054;8.600;2023-04-03T08:24:17;17.80;24.70
51029;DHT22;37054;52.054;8.600;2023-04-03T08:26:42;17.90;24.70
51029;DHT22;37054;52.054;8.600;2023-04-03T08:29:08;17.80;24.90
51029;DHT22;37054;52.054;8.600;2023-04-03T08:31:33;17.90;24.90
51029;DHT22;37054;52.054;8.600;2023-04-03T08:33:58;17.90;24.10
51029;DHT22;37054;52.054;8.600;2023-04-03T08:36:25;17.80;24.30
51029;DHT22;37054;52.054;8.600;2023-04-03T08:38:52;17.80;24.70
51029;DHT22;37054;52.054;8.600;2023-04-03T08:43:53;17.70;23.90
51029;DHT22;37054;52.054;8.600;2023-04-03T08:46:20;17.50;24.10
51029;DHT22;37054;52.054;8.600;2023-04-03T08:48:47;17.50;24.60
51029;DHT22;37054;52.054;8.600;2023-04-03T08:51:15;17.80;24.90
51029;DHT22;37054;52.054;8.600;2023-04-03T08:53:43;18.00;25.00
51029;DHT22;37054;52.054;8.600;2023-04-03T08:56:09;18.10;24.10
51029;DHT22;37054;52.054;8.600;2023-04-03T08:58:41;17.90;24.10
51029;DHT22;37054;52.054;8.600;2023-04-03T09:01:17;18.00;24.60
51029;DHT22;37054;52.054;8.600;2023-04-03T09:03:44;18.20;24.80
51029;DHT22;37054;52.054;8.600;2023-04-03T09:06:16;18.30;24.00
51029;DHT22;37054;52.054;8.600;2023-04-03T09:08:46;18.40;24.90
51029;DHT22;37054;52.054;8.600;2023-04-03T09:11:16;18.50;24.40
51029;DHT22;37054;52.054;8.600;2023-04-03T09:16:19;18.70;23.70
51029;DHT22;37054;52.054;8.600;2023-04-03T09:18:47;18.80;23.70
51029;DHT22;37054;52.054;8.600;2023-04-03T09:21:14;19.00;23.70
51029;DHT22;37054;52.054;8.600;2023-04-03T09:23:51;19.00;23.50
51029;DHT22;37054;52.054;8.600;2023-04-03T09:26:23;19.00;23.20
51029;DHT22;37054;52.054;8.600;2023-04-03T09:28:51;19.00;23.20
51029;DHT22;37054;52.054;8.600;2023-04-03T09:31:19;19.20;23.20
51029;DHT22;37054;52.054;8.600;2023-04-03T09:33:46;19.30;23.30
51029;DHT22;37054;52.054;8.600;2023-04-03T09:36:12;19.50;23.20
51029;DHT22;37054;52.054;8.600;2023-04-03T09:38:37;19.60;23.10
51029;DHT22;37054;52.054;8.600;2023-04-03T09:41:16;19.80;23.00
51029;DHT22;37054;52.054;8.600;2023-04-03T09:43:51;20.00;22.70
51029;DHT22;37054;52.054;8.600;2023-04-03T09:46:19;20.10;22.80
51029;DHT22;37054;52.054;8.600;2023-04-03T09:49:00;20.40;22.70
51029;DHT22;37054;52.054;8.600;2023-04-03T09:51:27;20.60;22.10
51029;DHT22;37054;52.054;8.600;2023-04-03T09:53:53;20.50;21.00
51029;DHT22;37054;52.054;8.600;2023-04-03T09:59:06;19.30;21.50
51029;DHT22;37054;52.054;8.600;2023-04-03T10:01:33;18.60;22.00
51029;DHT22;37054;52.054;8.600;2023-04-03T10:06:35;17.70;22.90
51029;DHT22;37054;52.054;8.600;2023-04-03T10:09:03;17.30;22.80
51029;DHT22;37054;52.054;8.600;2023-04-03T10:11:30;17.10;23.40
51029;DHT22;37054;52.054;8.600;2023-04-03T10:13:56;17.30;23.10
51029;DHT22;37054;52.054;8.600;2023-04-03T10:16:38;17.60;23.00
51029;DHT22;37054;52.054;8.600;2023-04-03T10:19:29;18.00;23.20
51029;DHT22;37054;52.054;8.600;2023-04-03T10:24:57;18.80;22.00
51029;DHT22;37054;52.054;8.600;2023-04-03T10:30:20;19.20;21.50
51029;DHT22;37054;52.054;8.600;2023-04-03T10:32:53;19.10;21.10
51029;DHT22;37054;52.054;8.600;2023-04-03T10:38:15;19.80;21.10
51029;DHT22;37054;52.054;8.600;2023-04-03T10:40:47;20.00;20.70
51029;DHT22;37054;52.054;8.600;2023-04-03T10:45:47;20.00;20.90
51029;DHT22;37054;52.054;8.600;2023-04-03T10:48:22;20.20;21.10
51029;DHT22;37054;52.054;8.600;2023-04-03T10:51:12;19.80;20.90
51029;DHT22;37054;52.054;8.600;2023-04-03T10:56:16;18.40;21.60
51029;DHT22;37054;52.054;8.600;2023-04-03T10:58:44;18.00;22.20
51029;DHT22;37054;52.054;8.600;2023-04-03T11:01:14;18.00;22.30
51029;DHT22;37054;52.054;8.600;2023-04-03T11:03:45;18.30;22.40
51029;DHT22;37054;52.054;8.600;2023-04-03T11:06:13;18.50;22.60
51029;DHT22;37054;52.054;8.600;2023-04-03T11:11:25;19.10;22.00
51029;DHT22;37054;52.054;8.600;2023-04-03T11:13:55;19.60;22.30
51029;DHT22;37054;52.054;8.600;2023-04-03T11:16:26;20.20;21.80
51029;DHT22;37054;52.054;8.600;2023-04-03T11:21:51;19.90;21.30
51029;DHT22;37054;52.054;8.600;2023-04-03T11:24:16;19.60;22.00
51029;DHT22;37054;52.054;8.600;2023-04-03T11:26:42;19.50;22.60
51029;DHT22;37054;52.054;8.600;2023-04-03T11:29:09;20.10;22.30
51029;DHT22;37054;52.054;8.600;2023-04-03T11:36:44;20.80;20.70
51029;DHT22;37054;52.054;8.600;2023-04-03T11:47:47;20.80;19.80
51029;DHT22;37054;52.054;8.600;2023-04-03T11:50:30;20.60;20.10
51029;DHT22;37054;52.054;8.600;2023-04-03T11:52:56;20.60;20.40
51029;DHT22;37054;52.054;8.600;2023-04-03T12:03:29;19.10;21.90
51029;DHT22;37054;52.054;8.600;2023-04-03T12:08:29;19.10;21.70
51029;DHT22;37054;52.054;8.600;2023-04-03T12:16:01;19.20;22.00
51029;DHT22;37054;52.054;8.600;2023-04-03T12:18:48;19.30;21.60
51029;DHT22;37054;52.054;8.600;2023-04-03T12:23:58;18.70;21.70
51029;DHT22;37054;52.054;8.600;2023-04-03T12:26:26;18.30;22.40
51029;DHT22;37054;52.054;8.600;2023-04-03T12:28:52;18.10;22.60
51029;DHT22;37054;52.054;8.600;2023-04-03T12:31:18;17.70;22.30
51029;DHT22;37054;52.054;8.600;2023-04-03T12:33:57;17.30;22.20
51029;DHT22;37054;52.054;8.600;2023-04-03T12:36:28;17.00;22.70
51029;DHT22;37054;52.054;8.600;2023-04-03T12:41:56;16.20;23.40
51029;DHT22;37054;52.054;8.600;2023-04-03T12:44:36;15.90;24.00
51029;DHT22;37054;52.054;8.600;2023-04-03T12:47:07;15.70;24.40
51029;DHT22;37054;52.054;8.600;2023-04-03T12:49:39;15.60;24.70
51029;DHT22;37054;52.054;8.600;2023-04-03T12:54:50;15.40;24.80
51029;DHT22;37054;52.054;8.600;2023-04-03T12:57:25;15.20;24.80
51029;DHT22;37054;52.054;8.600;2023-04-03T12:59:52;15.20;25.00
51029;DHT22;37054;52.054;8.600;2023-04-03T13:04:50;15.00;25.40
51029;DHT22;37054;52.054;8.600;2023-04-03T13:07:26;14.90;25.50
51029;DHT22;37054;52.054;8.600;2023-04-03T13:10:01;14.80;25.80
51029;DHT22;37054;52.054;8.600;2023-04-03T13:12:27;15.40;25.40
51029;DHT22;37054;52.054;8.600;2023-04-03T13:14:54;15.30;25.30
51029;DHT22;37054;52.054;8.600;2023-04-03T13:17:20;15.90;25.00
51029;DHT22;37054;52.054;8.600;2023-04-03T13:19:46;16.50;24.70
51029;DHT22;37054;52.054;8.600;2023-04-03T13:22:22;17.20;24.10
51029;DHT22;37054;52.054;8.600;2023-04-03T13:24:49;17.60;23.50
51029;DHT22;37054;52.054;8.600;2023-04-03T13:27:15;17.80;23.10
51029;DHT22;37054;52.054;8.600;2023-04-03T13:29:41;18.10;22.90
51029;DHT22;37054;52.054;8.600;2023-04-03T13:32:13;18.20;22.60
51029;DHT22;37054;52.054;8.600;2023-04-03T13:34:43;18.10;22.40
51029;DHT22;37054;52.054;8.600;2023-04-03T13:37:22;18.00;22.40
51029;DHT22;37054;52.054;8.600;2023-04-03T13:39:58;17.80;22.50
51029;DHT22;37054;52.054;8.600;2023-04-03T13:42:25;17.80;23.00
51029;DHT22;37054;52.054;8.600;2023-04-03T13:47:39;17.30;22.30
51029;DHT22;37054;52.054;8.600;2023-04-03T13:53:22;16.70;22.60
51029;DHT22;37054;52.054;8.600;2023-04-03T13:55:26;16.30;22.90
51029;DHT22;37054;52.054;8.600;2023-04-03T13:57:54;16.10;23.50
51029;DHT22;37054;52.054;8.600;2023-04-03T14:03:52;16.20;23.80
51029;DHT22;37054;52.054;8.600;2023-04-03T14:05:52;16.20;23.60
51029;DHT22;37054;52.054;8.600;2023-04-03T14:08:18;16.10;23.60
51029;DHT22;37054;52.054;8.600;2023-04-03T14:10:43;15.70;23.60
51029;DHT22;37054;52.054;8.600;2023-04-03T14:13:11;15.40;23.70
51029;DHT22;37054;52.054;8.600;2023-04-03T14:15:37;15.20;23.80
51029;DHT22;37054;52.054;8.600;2023-04-03T14:18:02;14.90;24.40
51029;DHT22;37054;52.054;8.600;2023-04-03T14:20:28;14.90;24.60
51029;DHT22;37054;52.054;8.600;2023-04-03T14:22:53;15.00;24.70
51029;DHT22;37054;52.054;8.600;2023-04-03T14:25:19;15.20;24.90
51029;DHT22;37054;52.054;8.600;2023-04-03T14:27:47;15.20;24.60
51029;DHT22;37054;52.054;8.600;2023-04-03T14:30:23;15.00;24.70
51029;DHT22;37054;52.054;8.600;2023-04-03T14:32:49;14.80;24.70
51029;DHT22;37054;52.054;8.600;2023-04-03T14:35:15;14.70;25.20
51029;DHT22;37054;52.054;8.600;2023-04-03T14:37:40;14.70;25.20
51029;DHT22;37054;52.054;8.600;2023-04-03T14:40:06;14.70;25.10
51029;DHT22;37054;52.054;8.600;2023-04-03T14:42:34;14.70;25.00
51029;DHT22;37054;52.054;8.600;2023-04-03T14:45:05;14.50;25.10
51029;DHT22;37054;52.054;8.600;2023-04-03T14:47:30;14.50;25.20
51029;DHT22;37054;52.054;8.600;2023-04-03T14:49:56;14.60;25.50
51029;DHT22;37054;52.054;8.600;2023-04-03T14:52:23;14.70;26.00
51029;DHT22;37054;52.054;8.600;2023-04-03T14:54:49;14.70;25.80
51029;DHT22;37054;52.054;8.600;2023-04-03T14:57:16;14.70;25.90
51029;DHT22;37054;52.054;8.600;2023-04-03T14:59:42;14.70;25.90
51029;DHT22;37054;52.054;8.600;2023-04-03T15:02:11;14.70;25.50
51029;DHT22;37054;52.054;8.600;2023-04-03T15:04:47;14.70;25.70
51029;DHT22;37054;52.054;8.600;2023-04-03T15:07:12;14.70;25.80
51029;DHT22;37054;52.054;8.600;2023-04-03T15:09:38;14.60;25.70
51029;DHT22;37054;52.054;8.600;2023-04-03T15:12:03;14.50;25.60
51029;DHT22;37054;52.054;8.600;2023-04-03T15:14:29;14.30;25.70
51029;DHT22;37054;52.054;8.600;2023-04-03T15:16:54;14.20;25.90
51029;DHT22;37054;52.054;8.600;2023-04-03T15:19:20;14.00;26.20
51029;DHT22;37054;52.054;8.600;2023-04-03T15:21:45;14.10;26.50
51029;DHT22;37054;52.054;8.600;2023-04-03T15:24:10;14.10;26.60
51029;DHT22;37054;52.054;8.600;2023-04-03T15:26:36;14.00;26.70
51029;DHT22;37054;52.054;8.600;2023-04-03T15:29:03;14.00;26.80
51029;DHT22;37054;52.054;8.600;2023-04-03T15:31:28;14.00;26.30
51029;DHT22;37054;52.054;8.600;2023-04-03T15:33:54;13.70;26.30
51029;DHT22;37054;52.054;8.600;2023-04-03T15:36:19;13.70;26.60
51029;DHT22;37054;52.054;8.600;2023-04-03T15:38:45;13.80;26.50
51029;DHT22;37054;52.054;8.600;2023-04-03T15:41:10;14.00;26.70
51029;DHT22;37054;52.054;8.600;2023-04-03T15:43:35;14.20;26.70
51029;DHT22;37054;52.054;8.600;2023-04-03T15:46:01;14.40;26.50
51029;DHT22;37054;52.054;8.600;2023-04-03T15:48:27;14.50;26.20
51029;DHT22;37054;52.054;8.600;2023-04-03T15:50:53;14.50;26.00
51029;DHT22;37054;52.054;8.600;2023-04-03T15:53:18;14.40;26.20
51029;DHT22;37054;52.054;8.600;2023-04-03T15:55:44;14.30;26.60
51029;DHT22;37054;52.054;8.600;2023-04-03T15:58:09;14.00;26.50
51029;DHT22;37054;52.054;8.600;2023-04-03T16:00:36;13.90;26.50
51029;DHT22;37054;52.054;8.600;2023-04-03T16:03:04;13.70;26.70
51029;DHT22;37054;52.054;8.600;2023-04-03T16:05:30;13.50;26.80
51029;DHT22;37054;52.054;8.600;2023-04-03T16:07:56;13.30;27.00
51029;DHT22;37054;52.054;8.600;2023-04-03T16:10:22;13.30;27.00
51029;DHT22;37054;52.054;8.600;2023-04-03T16:12:47;13.20;27.20
51029;DHT22;37054;52.054;8.600;2023-04-03T16:15:13;13.10;27.40
51029;DHT22;37054;52.054;8.600;2023-04-03T16:17:38;13.10;27.30
51029;DHT22;37054;52.054;8.600;2023-04-03T16:20:06;13.20;27.30
51029;DHT22;37054;52.054;8.600;2023-04-03T16:22:31;13.30;27.10
51029;DHT22;37054;52.054;8.600;2023-04-03T16:24:57;13.50;26.90
51029;DHT22;37054;52.054;8.600;2023-04-03T16:27:23;13.60;26.90
51029;DHT22;37054;52.054;8.600;2023-04-03T16:29:55;13.70;27.10
51029;DHT22;37054;52.054;8.600;2023-04-03T16:32:21;13.80;27.10
51029;DHT22;37054;52.054;8.600;2023-04-03T16:34:47;13.80;26.80
51029;DHT22;37054;52.054;8.600;2023-04-03T16:37:12;13.70;27.00
51029;DHT22;37054;52.054;8.600;2023-04-03T16:39:38;13.50;27.00
51029;DHT22;37054;52.054;8.600;2023-04-03T16:42:03;13.30;26.90
51029;DHT22;37054;52.054;8.600;2023-04-03T16:44:29;13.20;27.20
51029;DHT22;37054;52.054;8.600;2023-04-03T16:46:54;13.10;27.30
51029;DHT22;37054;52.054;8.600;2023-04-03T16:49:20;13.10;27.50
51029;DHT22;37054;52.054;8.600;2023-04-03T16:51:45;12.90;27.80
51029;DHT22;37054;52.054;8.600;2023-04-03T16:54:11;12.90;28.10
51029;DHT22;37054;52.054;8.600;2023-04-03T16:56:38;12.80;28.20
51029;DHT22;37054;52.054;8.600;2023-04-03T16:59:04;12.80;28.30